createdAt,value
2023-03-08T00:01:01.516Z,13.10
2023-03-08T00:04:03.539Z,14.00
2023-03-08T00:07:05.462Z,13.80
2023-03-08T00:10:08.416Z,14.20
2023-03-08T00:13:10.430Z,14.60
2023-03-08T00:16:13.223Z,13.40
2023-03-08T00:19:15.161Z,13.90
2023-03-08T00:22:16.966Z,14.40
2023-03-08T00:25:18.837Z,15.00
2023-03-08T00:28:20.762Z,14.10
2023-03-08T00:31:22.747Z,13.80
2023-03-08T00:34:27.090Z,14.10
2023-03-08T00:37:28.898Z,13.10
2023-03-08T00:40:30.792Z,12.60
2023-03-08T00:43:33.209Z,13.20
2023-03-08T00:46:38.213Z,13.20
2023-03-08T00:49:41.762Z,14.20
2023-03-08T00:52:43.611Z,13.40
2023-03-08T00:55:56.704Z,12.80
2023-03-08T00:58:58.701Z,12.20
2023-03-08T01:05:03.254Z,12.00
2023-03-08T01:08:05.164Z,11.80
2023-03-08T01:11:13.892Z,12.60
2023-03-08T01:14:15.784Z,12.30
2023-03-08T01:17:18.087Z,11.90
2023-03-08T01:20:20.128Z,12.50
2023-03-08T01:23:21.985Z,12.20
2023-03-08T01:26:26.154Z,12.00
2023-03-08T01:29:30.929Z,12.90
2023-03-08T01:32:33.788Z,12.70
2023-03-08T01:35:37.653Z,11.90
2023-03-08T01:38:39.661Z,11.40
2023-03-08T01:41:41.561Z,12.50
2023-03-08T01:44:51.466Z,12.00
2023-03-08T01:47:53.552Z,12.10
2023-03-08T01:51:02.884Z,11.30
2023-03-08T01:54:11.056Z,11.80
2023-03-08T01:57:26.678Z,11.90
2023-03-08T02:00:28.548Z,11.50
2023-03-08T02:03:30.438Z,11.00
2023-03-08T02:06:32.543Z,12.80
2023-03-08T02:09:34.401Z,11.40
2023-03-08T02:12:37.474Z,11.20
2023-03-08T02:15:39.440Z,11.70
2023-03-08T02:19:10.200Z,11.90
2023-03-08T02:22:14.656Z,11.80
2023-03-08T02:25:22.117Z,11.70
2023-03-08T02:28:26.018Z,11.00
2023-03-08T02:31:27.805Z,10.80
2023-03-08T02:34:29.695Z,12.00
2023-03-08T02:37:33.264Z,11.20
2023-03-08T02:40:36.603Z,11.50
2023-03-08T02:43:38.447Z,11.90
2023-03-08T02:46:41.242Z,11.90
2023-03-08T02:49:43.097Z,12.10
2023-03-08T02:52:44.999Z,11.10
2023-03-08T02:55:46.911Z,12.40
2023-03-08T02:58:48.744Z,10.70
2023-03-08T03:01:50.627Z,11.20
2023-03-08T03:04:52.486Z,11.80
2023-03-08T03:07:56.190Z,11.60
2023-03-08T03:10:59.627Z,12.10
2023-03-08T03:14:01.758Z,11.40
2023-03-08T03:17:07.909Z,10.80
2023-03-08T03:20:10.831Z,11.00
2023-03-08T03:23:12.701Z,10.80
2023-03-08T03:26:22.006Z,11.30
2023-03-08T03:29:25.623Z,10.60
2023-03-08T03:32:32.660Z,12.10
2023-03-08T03:35:38.259Z,12.60
2023-03-08T03:38:40.643Z,12.30
2023-03-08T03:41:42.804Z,11.80
2023-03-08T03:44:46.948Z,11.80
2023-03-08T03:47:51.779Z,11.10
2023-03-08T03:51:01.330Z,12.40
2023-03-08T03:54:03.573Z,11.30
2023-03-08T04:00:11.217Z,10.80
2023-03-08T04:03:15.504Z,11.20
2023-03-08T04:06:18.762Z,10.40
2023-03-08T04:09:21.083Z,10.80
2023-03-08T04:12:28.617Z,10.70
2023-03-08T04:18:33.595Z,8.90
2023-03-08T04:21:35.709Z,9.70
2023-03-08T04:24:37.736Z,9.90
2023-03-08T04:27:44.032Z,9.80
2023-03-08T04:30:46.681Z,10.40
2023-03-08T04:33:50.797Z,9.80
2023-03-08T04:36:52.906Z,9.70
2023-03-08T04:39:56.128Z,10.40
2023-03-08T04:46:05.654Z,9.80
2023-03-08T04:49:08.006Z,9.60
2023-03-08T04:52:13.753Z,9.20
2023-03-08T04:58:18.677Z,9.90
2023-03-08T05:01:22.831Z,10.10
2023-03-08T05:04:25.094Z,10.40
2023-03-08T05:10:30.073Z,8.90
2023-03-08T05:16:35.234Z,8.10
2023-03-08T05:19:37.787Z,8.20
2023-03-08T05:22:56.698Z,8.30
2023-03-08T05:26:04.079Z,10.50
2023-03-08T05:29:06.258Z,9.60
2023-03-08T05:32:12.409Z,11.50
2023-03-08T05:35:15.183Z,13.50
2023-03-08T05:38:17.375Z,17.00
2023-03-08T05:41:20.760Z,12.80
2023-03-08T05:44:23.678Z,10.40
2023-03-08T05:47:26.468Z,9.80
2023-03-08T05:50:28.362Z,8.90
2023-03-08T05:53:30.333Z,10.80
2023-03-08T05:56:32.322Z,11.20
2023-03-08T05:59:39.588Z,13.40
2023-03-08T06:02:42.934Z,13.40
2023-03-08T06:05:45.376Z,16.60
2023-03-08T06:08:48.087Z,13.70
2023-03-08T06:11:50.243Z,14.00
2023-03-08T06:14:53.607Z,17.30
2023-03-08T06:17:56.949Z,23.20
2023-03-08T06:21:03.947Z,18.00
2023-03-08T06:24:06.423Z,14.40
2023-03-08T06:27:08.448Z,18.50
2023-03-08T06:30:11.707Z,19.10
2023-03-08T06:33:13.898Z,21.80
2023-03-08T06:36:20.336Z,21.10
2023-03-08T06:39:23.941Z,17.00
2023-03-08T06:42:39.858Z,12.80
2023-03-08T06:45:42.974Z,11.60
2023-03-08T06:48:46.405Z,10.80
2023-03-08T06:51:49.683Z,11.20
2023-03-08T06:54:51.592Z,10.70
2023-03-08T06:57:55.078Z,10.10
2023-03-08T07:00:59.282Z,10.60
2023-03-08T07:04:01.214Z,9.80
2023-03-08T07:07:03.778Z,10.10
2023-03-08T07:10:06.348Z,10.50
2023-03-08T07:13:08.273Z,12.40
2023-03-08T07:16:12.942Z,12.90
2023-03-08T07:19:15.087Z,12.60
2023-03-08T07:22:16.886Z,12.70
2023-03-08T07:25:20.112Z,13.50
2023-03-08T07:28:22.309Z,15.10
2023-03-08T07:31:25.949Z,14.00
2023-03-08T07:34:27.827Z,13.80
2023-03-08T07:37:29.716Z,12.30
2023-03-08T07:40:31.548Z,12.80
2023-03-08T07:43:33.471Z,15.60
2023-03-08T07:46:45.196Z,17.40
2023-03-08T07:49:47.321Z,15.20
2023-03-08T07:52:49.136Z,14.10
2023-03-08T07:55:51.000Z,11.60
2023-03-08T07:58:55.565Z,8.80
2023-03-08T08:01:58.129Z,9.40
2023-03-08T08:05:00.714Z,8.50
2023-03-08T08:08:03.060Z,9.10
2023-03-08T08:11:14.047Z,7.90
2023-03-08T08:14:15.966Z,9.00
2023-03-08T08:17:19.238Z,8.70
2023-03-08T08:20:21.216Z,8.40
2023-03-08T08:23:23.143Z,7.30
2023-03-08T08:26:25.476Z,7.20
2023-03-08T08:32:29.810Z,6.90
2023-03-08T08:35:42.646Z,6.00
2023-03-08T08:38:45.718Z,6.70
2023-03-08T08:41:50.584Z,7.60
2023-03-08T08:44:53.184Z,7.40
2023-03-08T08:47:55.053Z,7.90
2023-03-08T08:50:58.221Z,6.70
2023-03-08T08:54:00.170Z,7.10
2023-03-08T08:57:02.095Z,8.40
2023-03-08T09:00:08.057Z,8.30
2023-03-08T09:03:11.128Z,12.60
2023-03-08T09:06:14.684Z,15.00
2023-03-08T09:09:17.572Z,13.50
2023-03-08T09:12:20.473Z,12.20
2023-03-08T09:15:22.553Z,10.90
2023-03-08T09:18:24.942Z,8.90
2023-03-08T09:24:29.749Z,8.10
2023-03-08T09:27:32.412Z,7.90
2023-03-08T09:33:36.240Z,8.10
2023-03-08T09:36:41.374Z,7.10
2023-03-08T09:39:44.143Z,8.10
2023-03-08T09:42:46.442Z,8.70
2023-03-08T09:49:00.311Z,8.10
2023-03-08T09:52:22.477Z,7.80
2023-03-08T09:55:31.244Z,7.70
2023-03-08T09:58:50.895Z,10.10
2023-03-08T10:01:58.724Z,8.00
2023-03-08T10:05:34.471Z,8.50
2023-03-08T10:08:55.685Z,8.90
2023-03-08T10:12:13.402Z,9.40
2023-03-08T10:15:19.939Z,8.80
2023-03-08T10:18:30.263Z,8.60
2023-03-08T10:21:36.638Z,8.90
2023-03-08T10:25:04.265Z,8.90
2023-03-08T10:28:13.519Z,8.30
2023-03-08T10:31:33.170Z,8.10
2023-03-08T10:34:35.202Z,8.30
2023-03-08T10:37:37.274Z,11.20
2023-03-08T10:40:39.273Z,7.40
2023-03-08T10:43:46.818Z,9.40
2023-03-08T10:46:49.891Z,8.10
2023-03-08T10:50:05.412Z,7.20
2023-03-08T10:53:19.798Z,7.50
2023-03-08T10:56:38.044Z,8.00
2023-03-08T10:59:40.774Z,7.70
2023-03-08T11:02:42.724Z,6.80
2023-03-08T11:06:14.904Z,6.80
2023-03-08T11:09:43.124Z,7.50
2023-03-08T11:12:45.348Z,7.30
2023-03-08T11:19:25.895Z,7.00
2023-03-08T11:26:24.116Z,7.90
2023-03-08T11:29:36.041Z,7.30
2023-03-08T11:32:49.768Z,7.70
2023-03-08T11:36:04.851Z,7.00
2023-03-08T11:39:19.363Z,8.20
2023-03-08T11:42:40.850Z,7.10
2023-03-08T11:46:22.206Z,7.50
2023-03-08T11:49:32.447Z,7.70
2023-03-08T11:52:51.240Z,8.80
2023-03-08T11:56:27.118Z,9.10
2023-03-08T11:59:31.687Z,8.50
2023-03-08T12:02:38.195Z,8.60
2023-03-08T12:06:00.834Z,8.70
2023-03-08T12:09:27.704Z,9.40
2023-03-08T12:12:48.220Z,10.50
2023-03-08T12:16:08.564Z,10.30
2023-03-08T12:19:29.553Z,9.00
2023-03-08T12:22:47.336Z,8.80
2023-03-08T12:26:03.300Z,8.60
2023-03-08T12:29:24.425Z,8.50
2023-03-08T12:32:27.414Z,8.40
2023-03-08T12:35:34.988Z,8.00
2023-03-08T12:38:45.013Z,7.50
2023-03-08T12:42:00.896Z,8.10
2023-03-08T12:45:27.646Z,7.80
2023-03-08T12:48:31.231Z,8.10
2023-03-08T12:51:33.483Z,8.00
2023-03-08T12:57:55.092Z,7.40
2023-03-08T13:01:03.181Z,8.00
2023-03-08T13:04:39.090Z,9.60
2023-03-08T13:08:09.442Z,8.00
2023-03-08T13:11:15.533Z,6.60
2023-03-08T13:14:38.467Z,6.70
2023-03-08T13:17:48.095Z,6.20
2023-03-08T13:21:01.584Z,7.60
2023-03-08T13:24:09.918Z,6.60
2023-03-08T13:27:40.512Z,6.70
2023-03-08T13:30:53.084Z,6.80
2023-03-08T13:33:58.669Z,18.30
2023-03-08T13:37:01.362Z,8.30
2023-03-08T13:40:07.227Z,7.10
2023-03-08T13:43:16.412Z,6.40
2023-03-08T13:46:19.215Z,9.20
2023-03-08T13:49:28.390Z,9.60
2023-03-08T13:52:35.072Z,7.00
2023-03-08T13:55:44.057Z,9.10
2023-03-08T13:58:49.253Z,8.70
2023-03-08T14:01:53.207Z,8.90
2023-03-08T14:04:56.200Z,7.60
2023-03-08T14:08:02.835Z,6.80
2023-03-08T14:11:12.605Z,6.40
2023-03-08T14:14:24.196Z,7.10
2023-03-08T14:17:28.879Z,6.40
2023-03-08T14:20:31.375Z,6.10
2023-03-08T14:23:47.144Z,14.50
2023-03-08T14:26:59.830Z,6.30
2023-03-08T14:30:11.993Z,6.20
2023-03-08T14:33:13.903Z,6.40
2023-03-08T14:36:16.012Z,4.60
2023-03-08T14:39:18.866Z,4.00
2023-03-08T14:42:26.997Z,4.00
2023-03-08T14:45:53.147Z,3.90
2023-03-08T14:49:04.384Z,4.50
2023-03-08T14:52:19.693Z,4.70
2023-03-08T14:55:27.888Z,4.70
2023-03-08T14:58:31.950Z,5.80
2023-03-08T15:01:36.833Z,4.30
2023-03-08T15:04:39.331Z,3.80
2023-03-08T15:07:42.511Z,4.00
2023-03-08T15:24:17.017Z,9.30
2023-03-08T15:27:19.222Z,6.20
2023-03-08T15:30:24.418Z,6.40
2023-03-08T15:33:26.494Z,6.30
2023-03-08T15:36:31.866Z,8.70
2023-03-08T15:39:33.829Z,6.80
2023-03-08T15:42:35.757Z,6.20
2023-03-08T15:45:37.874Z,7.30
2023-03-08T15:48:40.066Z,7.70
2023-03-08T15:54:47.074Z,6.60
2023-03-08T15:57:49.837Z,7.90
2023-03-08T16:00:52.259Z,8.70
2023-03-08T16:03:56.083Z,10.10
2023-03-08T16:06:58.018Z,8.90
2023-03-08T16:10:00.732Z,9.90
2023-03-08T16:13:02.630Z,10.70
2023-03-08T16:16:05.662Z,11.30
2023-03-08T16:19:07.502Z,10.80
2023-03-08T16:22:10.219Z,12.50
2023-03-08T16:25:13.436Z,8.90
2023-03-08T16:28:15.421Z,7.70
2023-03-08T16:31:20.395Z,9.30
2023-03-08T16:34:22.260Z,7.90
2023-03-08T16:37:24.856Z,8.40
2023-03-08T16:40:30.469Z,8.40
2023-03-08T16:43:45.592Z,8.40
2023-03-08T16:46:48.969Z,9.80
2023-03-08T16:49:50.995Z,9.50
2023-03-08T16:52:57.392Z,10.10
2023-03-08T16:55:59.238Z,9.20
2023-03-08T16:59:04.229Z,9.80
2023-03-08T17:02:12.556Z,10.40
2023-03-08T17:05:15.018Z,11.10
2023-03-08T17:11:21.941Z,11.40
2023-03-08T17:14:24.040Z,10.30
2023-03-08T17:17:28.805Z,9.60
2023-03-08T17:20:32.194Z,10.10
2023-03-08T17:23:36.848Z,11.10
2023-03-08T17:26:45.740Z,11.10
2023-03-08T17:29:48.156Z,11.60
2023-03-08T17:32:50.682Z,12.40
2023-03-08T17:38:56.020Z,11.60
2023-03-08T17:45:00.269Z,12.40
2023-03-08T17:48:03.193Z,19.50
2023-03-08T17:51:07.496Z,14.60
2023-03-08T17:54:11.097Z,14.50
2023-03-08T17:57:13.315Z,14.70
2023-03-08T18:00:15.586Z,14.80
2023-03-08T18:06:24.282Z,14.30
2023-03-08T18:09:29.091Z,16.20
2023-03-08T18:12:31.523Z,17.60
2023-03-08T18:15:33.347Z,16.00
2023-03-08T18:18:35.420Z,16.20
2023-03-08T18:21:40.003Z,19.00
2023-03-08T18:24:42.984Z,17.00
2023-03-08T18:27:45.089Z,19.30
2023-03-08T18:30:48.267Z,19.80
2023-03-08T18:33:50.272Z,22.90
2023-03-08T18:36:52.209Z,23.20
2023-03-08T18:39:54.501Z,24.10
2023-03-08T18:45:58.462Z,22.20
2023-03-08T18:49:04.561Z,23.00
2023-03-08T18:52:06.813Z,26.00
2023-03-08T18:58:10.938Z,22.40
2023-03-08T19:01:16.128Z,23.00
2023-03-08T19:04:18.187Z,23.50
2023-03-08T19:07:20.073Z,24.70
2023-03-08T19:10:21.887Z,25.50
2023-03-08T19:13:23.847Z,24.50
2023-03-08T19:16:28.687Z,26.50
2023-03-08T19:19:30.774Z,26.50
2023-03-08T19:22:32.903Z,24.30
2023-03-08T19:25:59.273Z,22.30
2023-03-08T19:29:04.178Z,24.90
2023-03-08T19:32:07.400Z,27.30
2023-03-08T19:35:09.634Z,27.20
2023-03-08T19:41:13.379Z,28.00
2023-03-08T19:44:15.328Z,28.00
2023-03-08T19:47:19.356Z,28.30
2023-03-08T19:50:21.150Z,27.70
2023-03-08T19:53:23.072Z,28.50
2023-03-08T19:56:25.786Z,28.60
2023-03-08T19:59:27.702Z,32.60
2023-03-08T20:02:29.506Z,33.60
2023-03-08T20:05:31.591Z,32.80
2023-03-08T20:08:35.467Z,32.40
2023-03-08T20:11:37.514Z,33.50
2023-03-08T20:14:39.368Z,35.90
2023-03-08T20:17:41.154Z,33.60
2023-03-08T20:20:44.280Z,36.20
2023-03-08T20:23:47.478Z,36.00
2023-03-08T20:26:49.632Z,36.20
2023-03-08T20:32:54.566Z,30.20
2023-03-08T20:36:00.414Z,30.10
2023-03-08T20:39:03.242Z,29.10
2023-03-08T20:42:05.186Z,27.00
2023-03-08T20:48:09.392Z,23.90
2023-03-08T20:51:14.111Z,26.60
2023-03-08T20:54:17.199Z,25.60
2023-03-08T20:57:19.054Z,24.70
2023-03-08T21:00:24.503Z,26.10
2023-03-08T21:03:26.917Z,26.20
2023-03-08T21:06:31.041Z,25.90
2023-03-08T21:09:33.523Z,27.20
2023-03-08T21:12:36.345Z,26.00
2023-03-08T21:15:39.577Z,25.70
2023-03-08T21:18:45.363Z,25.90
2023-03-08T21:21:47.190Z,23.90
2023-03-08T21:24:49.020Z,22.30
2023-03-08T21:27:50.821Z,21.10
2023-03-08T21:30:52.667Z,20.00
2023-03-08T21:33:55.013Z,20.80
2023-03-08T21:39:58.498Z,18.50
2023-03-08T21:43:00.273Z,20.90
2023-03-08T21:46:04.068Z,21.60
2023-03-08T21:49:06.913Z,22.00
2023-03-08T21:52:09.395Z,19.60
2023-03-08T21:55:11.262Z,18.00
2023-03-08T21:58:13.160Z,18.20
2023-03-08T22:01:27.334Z,16.80
2023-03-08T22:04:29.284Z,16.40
2023-03-08T22:07:31.085Z,16.30
2023-03-08T22:10:32.893Z,16.30
2023-03-08T22:13:35.153Z,16.40
2023-03-08T22:19:39.142Z,17.00
2023-03-08T22:22:41.041Z,16.10
2023-03-08T22:25:42.812Z,16.70
2023-03-08T22:28:45.166Z,17.10
2023-03-08T22:34:48.762Z,15.30
2023-03-08T22:37:50.655Z,14.90
2023-03-08T22:40:52.551Z,16.10
2023-03-08T22:43:54.902Z,15.20
2023-03-08T22:49:58.464Z,15.00
2023-03-08T22:53:00.299Z,18.20
2023-03-08T22:56:02.122Z,16.10
2023-03-08T22:59:03.896Z,12.30
2023-03-08T23:02:06.251Z,14.70
2023-03-08T23:08:12.534Z,15.60
2023-03-08T23:11:14.729Z,16.30
2023-03-08T23:14:16.652Z,15.90
2023-03-08T23:17:18.397Z,16.60
2023-03-08T23:20:21.805Z,16.60
2023-03-08T23:23:24.399Z,15.50
2023-03-08T23:26:27.870Z,16.90
2023-03-08T23:29:30.010Z,17.20
2023-03-08T23:32:32.236Z,16.40
2023-03-08T23:35:34.058Z,15.80
2023-03-08T23:38:36.042Z,15.80
2023-03-08T23:41:38.785Z,15.30
2023-03-08T23:44:40.669Z,15.10
2023-03-08T23:47:42.497Z,15.40
2023-03-08T23:50:44.248Z,14.90
2023-03-08T23:53:51.761Z,15.80
2023-03-08T23:56:53.556Z,15.40
2023-03-08T23:59:55.361Z,15.90
